createdAt,value
2022-10-15T00:02:26.726Z,12.70
2022-10-15T00:04:55.471Z,12.70
2022-10-15T00:07:24.403Z,12.70
2022-10-15T00:09:53.332Z,12.80
2022-10-15T00:12:21.970Z,12.70
2022-10-15T00:14:50.620Z,12.60
2022-10-15T00:17:20.860Z,12.50
2022-10-15T00:19:49.856Z,12.40
2022-10-15T00:22:18.505Z,12.50
2022-10-15T00:24:47.114Z,12.50
2022-10-15T00:27:15.784Z,12.50
2022-10-15T00:29:44.631Z,12.50
2022-10-15T00:32:13.269Z,12.40
2022-10-15T00:34:43.629Z,12.40
2022-10-15T00:37:12.351Z,12.40
2022-10-15T00:39:40.979Z,12.40
2022-10-15T00:42:11.355Z,12.30
2022-10-15T00:44:54.926Z,12.30
2022-10-15T00:47:30.224Z,12.30
2022-10-15T00:50:06.480Z,12.30
2022-10-15T00:52:41.093Z,12.20
2022-10-15T00:55:14.410Z,12.20
2022-10-15T00:57:45.103Z,12.10
2022-10-15T01:00:16.674Z,12.10
2022-10-15T01:02:46.587Z,12.20
2022-10-15T01:05:18.992Z,12.30
2022-10-15T01:07:47.631Z,12.20
2022-10-15T01:10:16.617Z,12.30
2022-10-15T01:12:58.682Z,12.30
2022-10-15T01:15:30.902Z,12.20
2022-10-15T01:18:04.548Z,12.20
2022-10-15T01:20:58.059Z,12.10
2022-10-15T01:24:14.179Z,12.20
2022-10-15T01:27:02.253Z,12.10
2022-10-15T01:29:47.206Z,12.10
2022-10-15T01:32:22.337Z,12.00
2022-10-15T01:34:57.621Z,12.10
2022-10-15T01:37:36.286Z,12.00
2022-10-15T01:40:12.669Z,11.90
2022-10-15T01:42:47.597Z,11.70
2022-10-15T01:45:22.012Z,11.80
2022-10-15T01:47:55.938Z,11.70
2022-10-15T01:50:27.845Z,11.70
2022-10-15T01:52:58.565Z,11.70
2022-10-15T01:55:28.491Z,11.70
2022-10-15T01:57:59.740Z,11.70
2022-10-15T02:00:28.461Z,11.70
2022-10-15T02:03:02.663Z,11.70
2022-10-15T02:05:34.820Z,11.60
2022-10-15T02:08:12.017Z,11.60
2022-10-15T02:10:47.378Z,11.60
2022-10-15T02:13:25.439Z,11.50
2022-10-15T02:16:03.733Z,11.60
2022-10-15T02:18:41.365Z,11.60
2022-10-15T02:21:14.271Z,11.60
2022-10-15T02:23:48.944Z,11.50
2022-10-15T02:26:18.522Z,11.50
2022-10-15T02:28:52.488Z,11.60
2022-10-15T02:31:23.317Z,11.60
2022-10-15T02:33:56.811Z,11.60
2022-10-15T02:36:25.834Z,11.60
2022-10-15T02:38:57.253Z,11.60
2022-10-15T02:41:26.024Z,11.60
2022-10-15T02:43:54.731Z,11.60
2022-10-15T02:46:23.532Z,11.60
2022-10-15T02:48:53.574Z,11.60
2022-10-15T02:51:22.165Z,11.50
2022-10-15T02:53:50.836Z,11.50
2022-10-15T02:56:19.563Z,11.40
2022-10-15T02:58:48.214Z,11.40
2022-10-15T03:01:17.032Z,11.30
2022-10-15T03:03:45.732Z,11.40
2022-10-15T03:06:16.054Z,11.30
2022-10-15T03:08:44.787Z,11.30
2022-10-15T03:11:13.385Z,11.30
2022-10-15T03:13:42.418Z,11.30
2022-10-15T03:16:15.969Z,11.30
2022-10-15T03:18:44.585Z,11.30
2022-10-15T03:21:14.704Z,11.20
2022-10-15T03:23:43.451Z,11.30
2022-10-15T03:26:12.201Z,11.20
2022-10-15T03:28:40.846Z,11.20
2022-10-15T03:31:09.687Z,11.30
2022-10-15T03:33:38.302Z,11.20
2022-10-15T03:36:08.315Z,11.20
2022-10-15T03:38:38.368Z,11.20
2022-10-15T03:41:07.747Z,11.20
2022-10-15T03:43:38.867Z,11.20
2022-10-15T03:46:10.766Z,11.20
2022-10-15T03:48:40.139Z,11.20
2022-10-15T03:51:08.943Z,11.20
2022-10-15T03:53:39.029Z,11.20
2022-10-15T03:56:08.697Z,11.20
2022-10-15T03:58:37.348Z,11.30
2022-10-15T04:01:11.402Z,11.30
2022-10-15T04:03:40.829Z,11.30
2022-10-15T04:06:09.998Z,11.40
2022-10-15T04:08:40.445Z,11.40
2022-10-15T04:11:09.210Z,11.40
2022-10-15T04:13:37.895Z,11.40
2022-10-15T04:16:07.139Z,11.40
2022-10-15T04:18:35.771Z,11.50
2022-10-15T04:21:04.345Z,11.50
2022-10-15T04:23:32.855Z,11.50
2022-10-15T04:26:03.125Z,11.50
2022-10-15T04:28:31.785Z,11.50
2022-10-15T04:31:01.000Z,11.50
2022-10-15T04:33:30.408Z,11.50
2022-10-15T04:36:03.430Z,11.50
2022-10-15T04:38:32.256Z,11.40
2022-10-15T04:41:04.049Z,11.50
2022-10-15T04:43:32.998Z,11.50
2022-10-15T04:46:02.730Z,11.50
2022-10-15T04:48:32.625Z,11.60
2022-10-15T04:51:05.827Z,11.60
2022-10-15T04:53:34.845Z,11.70
2022-10-15T04:56:07.049Z,11.70
2022-10-15T04:58:36.973Z,11.70
2022-10-15T05:01:07.106Z,11.60
2022-10-15T05:03:38.719Z,11.70
2022-10-15T05:06:11.491Z,11.80
2022-10-15T05:08:42.107Z,11.80
2022-10-15T05:11:14.569Z,11.80
2022-10-15T05:13:43.504Z,11.90
2022-10-15T05:16:14.238Z,11.90
2022-10-15T05:18:44.286Z,12.00
2022-10-15T05:21:13.833Z,12.10
2022-10-15T05:23:44.237Z,12.10
2022-10-15T05:26:15.934Z,12.10
2022-10-15T05:28:44.825Z,12.10
2022-10-15T05:31:18.834Z,12.10
2022-10-15T05:33:48.234Z,12.10
2022-10-15T05:36:18.651Z,12.10
2022-10-15T05:38:47.426Z,12.00
2022-10-15T05:41:17.609Z,12.10
2022-10-15T05:43:48.803Z,12.10
2022-10-15T05:46:18.198Z,12.20
2022-10-15T05:48:50.399Z,12.20
2022-10-15T05:51:19.846Z,12.20
2022-10-15T05:53:49.107Z,12.20
2022-10-15T05:56:19.457Z,12.20
2022-10-15T05:58:48.321Z,12.30
2022-10-15T06:01:17.516Z,12.20
2022-10-15T06:03:46.356Z,12.20
2022-10-15T06:06:17.264Z,12.20
2022-10-15T06:08:46.746Z,12.20
2022-10-15T06:11:15.977Z,12.30
2022-10-15T06:13:46.877Z,12.30
2022-10-15T06:16:19.524Z,12.30
2022-10-15T06:18:52.951Z,12.30
2022-10-15T06:21:22.039Z,12.40
2022-10-15T06:23:50.907Z,12.40
2022-10-15T06:26:19.697Z,12.30
2022-10-15T06:28:50.142Z,12.40
2022-10-15T06:31:19.104Z,12.40
2022-10-15T06:33:48.211Z,12.50
2022-10-15T06:36:17.340Z,12.60
2022-10-15T06:38:48.457Z,12.50
2022-10-15T06:41:18.013Z,12.60
2022-10-15T06:43:47.550Z,12.60
2022-10-15T06:46:18.168Z,12.70
2022-10-15T06:48:47.168Z,12.70
2022-10-15T06:51:16.063Z,12.80
2022-10-15T06:53:45.014Z,12.70
2022-10-15T06:56:13.942Z,12.80
2022-10-15T06:58:44.404Z,12.90
2022-10-15T07:01:13.181Z,13.00
2022-10-15T07:03:44.181Z,13.10
2022-10-15T07:06:13.120Z,13.20
2022-10-15T07:08:41.972Z,13.40
2022-10-15T07:11:11.244Z,13.50
2022-10-15T07:13:40.336Z,13.70
2022-10-15T07:16:11.057Z,13.80
2022-10-15T07:18:40.633Z,14.00
2022-10-15T07:21:11.797Z,14.20
2022-10-15T07:23:41.158Z,14.10
2022-10-15T07:26:09.950Z,14.10
2022-10-15T07:28:38.673Z,14.10
2022-10-15T07:31:09.079Z,14.30
2022-10-15T07:33:37.831Z,14.30
2022-10-15T07:36:08.199Z,14.20
2022-10-15T07:38:38.672Z,14.30
2022-10-15T07:41:08.608Z,14.40
2022-10-15T07:43:37.660Z,14.40
2022-10-15T07:46:07.133Z,14.50
2022-10-15T07:48:35.905Z,14.50
2022-10-15T07:51:07.273Z,14.60
2022-10-15T07:53:37.555Z,14.70
2022-10-15T07:56:08.383Z,14.80
2022-10-15T07:58:38.464Z,15.00
2022-10-15T08:01:08.530Z,15.30
2022-10-15T08:03:37.427Z,15.40
2022-10-15T08:06:09.232Z,15.50
2022-10-15T08:08:39.971Z,15.60
2022-10-15T08:11:10.108Z,15.50
2022-10-15T08:13:41.658Z,15.50
2022-10-15T08:16:11.240Z,15.70
2022-10-15T08:18:40.552Z,15.80
2022-10-15T08:21:10.426Z,16.00
2022-10-15T08:23:40.735Z,16.20
2022-10-15T08:26:10.045Z,16.30
2022-10-15T08:28:39.178Z,16.40
2022-10-15T08:31:08.264Z,16.50
2022-10-15T08:33:37.786Z,16.50
2022-10-15T08:36:08.007Z,16.80
2022-10-15T08:38:37.037Z,16.90
2022-10-15T08:41:22.579Z,17.00
2022-10-15T08:43:51.502Z,16.80
2022-10-15T08:46:25.303Z,16.70
2022-10-15T08:48:57.339Z,16.50
2022-10-15T08:51:29.920Z,16.50
2022-10-15T08:54:01.827Z,16.40
2022-10-15T08:56:36.969Z,16.30
2022-10-15T08:59:18.722Z,16.00
2022-10-15T09:01:53.233Z,15.80
2022-10-15T09:04:32.557Z,15.70
2022-10-15T09:07:08.040Z,15.50
2022-10-15T09:09:46.153Z,15.50
2022-10-15T09:12:42.736Z,15.40
2022-10-15T09:15:16.100Z,15.50
2022-10-15T09:17:47.891Z,15.70
2022-10-15T09:20:19.824Z,15.90
2022-10-15T09:22:52.458Z,15.90
2022-10-15T09:25:24.716Z,16.00
2022-10-15T09:27:58.219Z,15.90
2022-10-15T09:30:36.968Z,16.00
2022-10-15T09:33:10.445Z,16.00
2022-10-15T09:35:43.645Z,15.90
2022-10-15T09:38:29.283Z,16.00
2022-10-15T09:41:16.795Z,16.20
2022-10-15T09:43:51.496Z,16.20
2022-10-15T09:46:20.396Z,16.50
2022-10-15T09:48:54.316Z,16.50
2022-10-15T09:51:29.405Z,16.40
2022-10-15T09:54:04.795Z,16.40
2022-10-15T09:56:38.355Z,16.40
2022-10-15T09:59:09.715Z,16.40
2022-10-15T10:01:38.743Z,16.50
2022-10-15T10:04:18.911Z,16.50
2022-10-15T10:06:50.013Z,16.30
2022-10-15T10:09:21.658Z,16.30
2022-10-15T10:11:53.530Z,16.30
2022-10-15T10:14:29.158Z,16.20
2022-10-15T10:17:17.867Z,16.30
2022-10-15T10:20:02.836Z,16.40
2022-10-15T10:22:31.981Z,16.20
2022-10-15T10:25:00.739Z,16.10
2022-10-15T10:27:31.842Z,16.10
2022-10-15T10:30:04.398Z,16.20
2022-10-15T10:32:35.665Z,16.20
2022-10-15T10:35:06.183Z,16.20
2022-10-15T10:37:44.109Z,16.30
2022-10-15T10:40:26.090Z,16.20
2022-10-15T10:43:13.087Z,16.20
2022-10-15T10:45:55.403Z,16.20
2022-10-15T10:48:27.059Z,16.30
2022-10-15T10:51:14.045Z,16.30
2022-10-15T10:53:51.589Z,16.50
2022-10-15T10:56:24.787Z,16.40
2022-10-15T10:59:01.139Z,16.40
2022-10-15T11:01:31.621Z,16.40
2022-10-15T11:04:00.530Z,16.50
2022-10-15T11:06:52.202Z,16.70
2022-10-15T11:09:33.657Z,16.90
2022-10-15T11:12:15.877Z,17.00
2022-10-15T11:14:51.796Z,17.30
2022-10-15T11:17:31.964Z,17.30
2022-10-15T11:23:08.407Z,17.50
2022-10-15T11:25:45.681Z,18.00
2022-10-15T11:28:42.569Z,18.20
2022-10-15T11:31:17.570Z,18.30
2022-10-15T11:33:59.945Z,18.40
2022-10-15T11:36:58.722Z,18.60
2022-10-15T11:39:51.604Z,18.80
2022-10-15T11:42:27.710Z,18.70
2022-10-15T11:45:33.829Z,18.70
2022-10-15T11:48:07.629Z,18.80
2022-10-15T11:50:43.279Z,18.70
2022-10-15T11:53:30.566Z,18.60
2022-10-15T11:56:04.216Z,18.60
2022-10-15T11:58:39.456Z,18.80
2022-10-15T12:01:13.954Z,18.80
2022-10-15T12:03:52.867Z,19.30
2022-10-15T12:06:26.885Z,19.90
2022-10-15T12:08:56.612Z,20.00
2022-10-15T12:11:39.118Z,20.00
2022-10-15T12:14:18.528Z,20.10
2022-10-15T12:16:55.512Z,20.00
2022-10-15T12:19:28.414Z,19.80
2022-10-15T12:22:11.841Z,19.60
2022-10-15T12:24:58.156Z,19.50
2022-10-15T12:27:34.985Z,19.30
2022-10-15T12:30:23.173Z,19.20
2022-10-15T12:32:52.577Z,19.20
2022-10-15T12:35:31.794Z,19.20
2022-10-15T12:38:14.986Z,19.00
2022-10-15T12:40:44.001Z,18.80
2022-10-15T12:43:17.670Z,18.60
2022-10-15T12:45:53.886Z,18.60
2022-10-15T12:48:35.613Z,18.60
2022-10-15T12:51:41.012Z,18.80
2022-10-15T12:54:36.522Z,18.80
2022-10-15T12:57:21.266Z,18.60
2022-10-15T12:59:58.398Z,18.60
2022-10-15T13:02:37.983Z,18.50
2022-10-15T13:05:08.689Z,18.60
2022-10-15T13:07:42.057Z,18.70
2022-10-15T13:10:23.162Z,18.90
2022-10-15T13:12:55.268Z,19.10
2022-10-15T13:15:25.483Z,19.00
2022-10-15T13:17:56.289Z,18.90
2022-10-15T13:20:34.369Z,18.50
2022-10-15T13:23:30.336Z,18.50
2022-10-15T13:26:24.013Z,18.30
2022-10-15T13:28:55.828Z,18.50
2022-10-15T13:31:30.400Z,18.60
2022-10-15T13:34:02.949Z,18.40
2022-10-15T13:36:34.545Z,18.30
2022-10-15T13:39:07.249Z,18.40
2022-10-15T13:41:41.024Z,18.50
2022-10-15T13:44:23.594Z,18.50
2022-10-15T13:46:52.970Z,18.40
2022-10-15T13:49:23.197Z,18.30
2022-10-15T13:51:55.744Z,18.30
2022-10-15T13:54:26.187Z,18.30
2022-10-15T13:56:59.318Z,18.20
2022-10-15T13:59:30.073Z,18.00
2022-10-15T14:02:01.486Z,17.90
2022-10-15T14:04:31.765Z,17.70
2022-10-15T14:07:03.540Z,17.60
2022-10-15T14:09:35.300Z,17.50
2022-10-15T14:12:07.397Z,17.50
2022-10-15T14:14:40.165Z,17.40
2022-10-15T14:17:13.322Z,17.40
2022-10-15T14:19:42.518Z,17.20
2022-10-15T14:22:20.223Z,17.20
2022-10-15T14:24:52.709Z,17.10
2022-10-15T14:27:24.900Z,17.10
2022-10-15T14:29:55.489Z,17.20
2022-10-15T14:32:27.510Z,17.20
2022-10-15T14:34:57.140Z,17.30
2022-10-15T14:37:42.706Z,17.30
2022-10-15T14:40:18.191Z,17.20
2022-10-15T14:42:50.274Z,17.10
2022-10-15T14:45:25.821Z,17.10
2022-10-15T14:47:58.821Z,17.10
2022-10-15T14:50:31.009Z,17.10
2022-10-15T14:53:01.964Z,17.20
2022-10-15T14:55:33.694Z,17.00
2022-10-15T14:58:10.035Z,16.90
2022-10-15T15:00:43.934Z,16.90
2022-10-15T15:03:18.849Z,16.80
2022-10-15T15:05:49.407Z,16.80
2022-10-15T15:08:18.554Z,16.80
2022-10-15T15:13:26.603Z,16.80
2022-10-15T15:15:56.007Z,16.70
2022-10-15T15:18:25.311Z,16.80
2022-10-15T15:21:01.963Z,16.80
2022-10-15T15:23:31.688Z,16.80
2022-10-15T15:26:00.711Z,16.70
2022-10-15T15:28:31.414Z,16.80
2022-10-15T15:31:02.032Z,16.80
2022-10-15T15:33:30.930Z,16.80
2022-10-15T15:36:03.782Z,16.80
2022-10-15T15:38:33.255Z,16.60
2022-10-15T15:41:12.682Z,16.50
2022-10-15T15:43:43.400Z,16.50
2022-10-15T15:46:12.138Z,16.50
2022-10-15T15:48:41.048Z,16.50
2022-10-15T15:51:18.718Z,16.40
2022-10-15T15:53:47.547Z,16.40
2022-10-15T15:56:16.408Z,16.40
2022-10-15T15:58:46.901Z,16.20
2022-10-15T16:01:15.836Z,16.20
2022-10-15T16:03:44.767Z,16.20
2022-10-15T16:06:14.121Z,16.10
2022-10-15T16:08:43.171Z,16.20
2022-10-15T16:11:11.971Z,16.10
2022-10-15T16:13:41.768Z,16.00
2022-10-15T16:16:12.870Z,16.00
2022-10-15T16:18:41.881Z,16.00
2022-10-15T16:21:10.920Z,16.00
2022-10-15T16:23:39.773Z,16.00
2022-10-15T16:26:08.641Z,16.00
2022-10-15T16:28:37.466Z,16.00
2022-10-15T16:31:19.042Z,16.00
2022-10-15T16:33:48.500Z,16.00
2022-10-15T16:36:18.382Z,16.10
2022-10-15T16:38:48.351Z,16.00
2022-10-15T16:41:19.090Z,16.10
2022-10-15T16:43:49.024Z,16.00
2022-10-15T16:46:20.414Z,16.00
2022-10-15T16:48:54.685Z,16.00
2022-10-15T16:51:24.756Z,15.90
2022-10-15T16:53:54.923Z,15.80
2022-10-15T16:56:25.603Z,15.80
2022-10-15T16:58:54.876Z,15.90
2022-10-15T17:01:30.218Z,16.00
2022-10-15T17:04:00.536Z,16.00
2022-10-15T17:06:32.364Z,15.90
2022-10-15T17:09:07.835Z,16.00
2022-10-15T17:11:38.820Z,16.00
2022-10-15T17:14:11.240Z,15.90
2022-10-15T17:16:43.555Z,16.00
2022-10-15T17:19:17.053Z,16.00
2022-10-15T17:21:47.035Z,15.90
2022-10-15T17:24:25.379Z,16.00
2022-10-15T17:26:55.032Z,16.00
2022-10-15T17:29:27.799Z,16.00
2022-10-15T17:32:02.475Z,16.00
2022-10-15T17:34:31.458Z,16.00
2022-10-15T17:37:00.253Z,16.00
2022-10-15T17:39:29.318Z,16.00
2022-10-15T17:41:58.860Z,15.90
2022-10-15T17:44:27.894Z,16.00
2022-10-15T17:46:57.054Z,16.00
2022-10-15T17:49:27.385Z,16.00
2022-10-15T17:51:56.599Z,16.00
2022-10-15T17:54:25.829Z,16.00
2022-10-15T17:56:55.407Z,15.90
2022-10-15T17:59:25.520Z,16.00
2022-10-15T18:01:59.206Z,16.10
2022-10-15T18:04:31.291Z,16.10
2022-10-15T18:07:00.578Z,16.10
2022-10-15T18:09:30.249Z,16.10
2022-10-15T18:12:02.260Z,16.00
2022-10-15T18:14:32.441Z,16.00
2022-10-15T18:17:01.804Z,16.00
2022-10-15T18:19:35.556Z,16.00
2022-10-15T18:22:06.498Z,16.00
2022-10-15T18:24:35.752Z,15.90
2022-10-15T18:27:06.052Z,15.90
2022-10-15T18:29:36.819Z,15.90
2022-10-15T18:32:06.832Z,15.90
2022-10-15T18:34:37.415Z,16.00
2022-10-15T18:37:07.405Z,15.80
2022-10-15T18:39:38.068Z,15.70
2022-10-15T18:42:07.752Z,15.60
2022-10-15T18:44:39.232Z,15.50
2022-10-15T18:47:13.179Z,15.50
2022-10-15T18:49:45.251Z,15.40
2022-10-15T18:52:21.728Z,15.40
2022-10-15T18:55:03.419Z,15.40
2022-10-15T18:57:32.776Z,15.40
2022-10-15T19:00:02.639Z,15.30
2022-10-15T19:02:32.261Z,15.40
2022-10-15T19:05:03.742Z,15.30
2022-10-15T19:07:33.052Z,15.30
2022-10-15T19:10:04.279Z,15.30
2022-10-15T19:12:38.764Z,15.20
2022-10-15T19:15:10.051Z,15.20
2022-10-15T19:17:48.452Z,15.00
2022-10-15T19:20:29.590Z,15.00
2022-10-15T19:23:08.817Z,15.00
2022-10-15T19:26:03.005Z,15.00
2022-10-15T19:28:41.039Z,15.00
2022-10-15T19:31:25.152Z,15.00
2022-10-15T19:34:01.413Z,15.00
2022-10-15T19:37:04.514Z,15.00
2022-10-15T19:40:08.784Z,15.00
2022-10-15T19:42:52.656Z,14.90
2022-10-15T19:45:25.203Z,14.80
2022-10-15T19:48:01.444Z,14.80
2022-10-15T19:50:39.343Z,14.80
2022-10-15T19:53:52.357Z,14.70
2022-10-15T19:56:24.765Z,14.70
2022-10-15T19:58:57.410Z,14.50
2022-10-15T20:01:26.987Z,14.60
2022-10-15T20:03:58.185Z,14.60
2022-10-15T20:06:29.747Z,14.60
2022-10-15T20:09:01.241Z,14.60
2022-10-15T20:11:30.245Z,14.50
2022-10-15T20:14:00.470Z,14.50
2022-10-15T20:16:32.880Z,14.50
2022-10-15T20:19:03.426Z,14.40
2022-10-15T20:21:32.563Z,14.40
2022-10-15T20:24:04.917Z,14.40
2022-10-15T20:26:34.205Z,14.30
2022-10-15T20:29:03.455Z,14.30
2022-10-15T20:31:35.243Z,14.30
2022-10-15T20:34:05.076Z,14.20
2022-10-15T20:36:33.909Z,14.20
2022-10-15T20:39:04.435Z,14.30
2022-10-15T20:41:33.773Z,14.30
2022-10-15T20:44:02.587Z,14.20
2022-10-15T20:46:35.538Z,14.30
2022-10-15T20:49:09.341Z,14.30
2022-10-15T20:51:41.453Z,14.30
2022-10-15T20:54:14.556Z,14.30
2022-10-15T20:56:44.151Z,14.30
2022-10-15T20:59:13.562Z,14.20
2022-10-15T21:01:42.505Z,14.30
2022-10-15T21:04:11.519Z,14.30
2022-10-15T21:06:40.442Z,14.30
2022-10-15T21:09:10.752Z,14.40
2022-10-15T21:11:42.635Z,14.30
2022-10-15T21:14:11.383Z,14.30
2022-10-15T21:16:40.334Z,14.30
2022-10-15T21:19:09.161Z,14.30
2022-10-15T21:21:38.109Z,14.20
2022-10-15T21:24:07.240Z,14.10
2022-10-15T21:26:37.518Z,14.20
2022-10-15T21:29:06.343Z,14.20
2022-10-15T21:31:35.140Z,14.00
2022-10-15T21:34:03.855Z,14.10
2022-10-15T21:36:32.845Z,14.10
2022-10-15T21:39:04.028Z,14.10
2022-10-15T21:41:33.978Z,14.10
2022-10-15T21:44:05.526Z,14.10
2022-10-15T21:46:34.533Z,14.10
2022-10-15T21:49:04.472Z,14.10
2022-10-15T21:51:34.782Z,14.00
2022-10-15T21:54:05.283Z,13.90
2022-10-15T21:56:34.656Z,14.00
2022-10-15T21:59:04.969Z,14.00
2022-10-15T22:01:35.113Z,13.90
2022-10-15T22:04:06.006Z,13.80
2022-10-15T22:06:35.442Z,13.80
2022-10-15T22:09:05.907Z,13.80
2022-10-15T22:11:36.582Z,13.80
2022-10-15T22:14:09.213Z,13.70
2022-10-15T22:16:39.585Z,13.80
2022-10-15T22:19:09.987Z,13.80
2022-10-15T22:21:40.001Z,13.80
2022-10-15T22:24:12.513Z,14.00
2022-10-15T22:26:43.983Z,14.10
2022-10-15T22:29:19.816Z,14.00
2022-10-15T22:31:49.036Z,14.00
2022-10-15T22:34:18.069Z,13.90
2022-10-15T22:36:47.241Z,13.90
2022-10-15T22:39:18.874Z,13.90
2022-10-15T22:41:49.444Z,14.00
2022-10-15T22:44:21.152Z,14.10
2022-10-15T22:46:50.807Z,14.10
2022-10-15T22:49:21.423Z,14.20
2022-10-15T22:51:51.369Z,14.20
2022-10-15T22:54:21.991Z,14.20
2022-10-15T22:56:51.524Z,14.20
2022-10-15T22:59:22.153Z,14.30
2022-10-15T23:01:50.905Z,14.30
2022-10-15T23:04:19.651Z,14.20
2022-10-15T23:06:48.413Z,14.10
2022-10-15T23:09:18.308Z,14.00
2022-10-15T23:11:47.555Z,13.90
2022-10-15T23:14:17.792Z,13.80
2022-10-15T23:16:49.312Z,13.80
2022-10-15T23:19:20.095Z,13.80
2022-10-15T23:21:50.730Z,13.90
2022-10-15T23:24:21.979Z,13.90
2022-10-15T23:26:51.037Z,13.80
2022-10-15T23:29:21.934Z,13.70
2022-10-15T23:31:52.407Z,13.70
2022-10-15T23:34:22.538Z,13.80
2022-10-15T23:36:51.467Z,13.80
2022-10-15T23:39:22.489Z,13.70
2022-10-15T23:41:51.570Z,13.80
2022-10-15T23:44:20.470Z,13.70
2022-10-15T23:46:49.126Z,13.60
2022-10-15T23:49:19.357Z,13.50
2022-10-15T23:51:47.992Z,13.50
2022-10-15T23:54:19.122Z,13.50
2022-10-15T23:56:48.291Z,13.50
2022-10-15T23:59:18.457Z,13.50
